Bentonville, AR (72712)

9:13 PM CST on February 09, 2016 (GMT -0600)
KARBENTO2 | | Change Station
CLOSE
Current Station
Personal Weather Station
Location: Bentonville, AR
Elevation: 1289 ft
Nearby Weather Stations

Elev 1289 ft 36.36 °N, 94.20 °W | Updated 47 seconds ago

Clear
Clear
27.7 °F
Feels Like 23 °F
N
3.9
Wind Variable Wind from NW
Gusts 8.3 mph

Today
High -- | Low -- °F
--% Chance of Precip.
Yesterday
High -- | Low -- °F
Precip. -- in
Pressure 30.24 in
Visibility 10.0 miles
Clouds Clear
Windchill 23 °F
Dew Point -0 °F
Humidity 29%
Rainfall 0.00 in
Snow Depth Not available.
7:11 AM 5:51 PM
Waxing Crescent, 3% visible
METAR KVBT 100255Z AUTO 34013G19KT 10SM CLR M02/M15 A3024 RMK AO1 52014
Pressure 30.24 in
Visibility 10.0 miles
Clouds Clear
Windchill 23 °F
Dew Point -0 °F
Humidity 29%
Rainfall 0.00 in
Snow Depth Not available.
7:11 AM 5:51 PM
Waxing Crescent, 3% visible
METAR KVBT 100255Z AUTO 34013G19KT 10SM CLR M02/M15 A3024 RMK AO1 52014

10-Day Weather Forecast

Almanac

Astronomy

Feb. 09, 2016 Rise Set
Actual Time
Civil Twilight
Nautical Twilight
Astronomical Twilight
Moon
Length of Visible Light
Length of Day
Tomorrow will be .
, % of the Moon is Illuminated

Today's Extremes

State Highs State Lows

Community

WunderPhotos

Upload Photos

1,891,788 photos uploaded!

WunderBlog® & News

Nearby

Air Quality

  Air Quality AQ Index Pollutant
Not available.

Snow Depth

Station Depth Elevation

Earthquake Activity

City Distance Mag. Time & Date
Minimum magnitude displayed is 2.5.

Coastal Water Temperatures

Place Temperature

Stations

Nearby Weather Stations

Station Location Temp. Windchill Dew Point Humidity Wind Precip. Elev Updated Type
                   

Watches & Warnings

There are currently no watches in effect.